sensor_id;sensor_type;location;lat;lon;timestamp;temperature;humidity
27559;DHT22;15002;52.028;5.670;2024-03-02T00:01:43;10.50;99.90
27559;DHT22;15002;52.028;5.670;2024-03-02T00:04:09;10.60;99.90
27559;DHT22;15002;52.028;5.670;2024-03-02T00:06:34;10.70;99.90
27559;DHT22;15002;52.028;5.670;2024-03-02T00:09:00;10.80;99.90
27559;DHT22;15002;52.028;5.670;2024-03-02T00:11:26;10.70;99.90
27559;DHT22;15002;52.028;5.670;2024-03-02T00:13:53;10.70;99.90
27559;DHT22;15002;52.028;5.670;2024-03-02T00:16:19;10.70;99.90
27559;DHT22;15002;52.028;5.670;2024-03-02T00:18:45;10.80;99.90
27559;DHT22;15002;52.028;5.670;2024-03-02T00:21:11;10.80;99.90
27559;DHT22;15002;52.028;5.670;2024-03-02T00:23:38;10.70;99.90
27559;DHT22;15002;52.028;5.670;2024-03-02T00:26:05;10.70;99.90
27559;DHT22;15002;52.028;5.670;2024-03-02T00:28:34;10.60;99.90
27559;DHT22;15002;52.028;5.670;2024-03-02T00:31:08;10.70;99.90
27559;DHT22;15002;52.028;5.670;2024-03-02T00:33:35;10.70;99.90
27559;DHT22;15002;52.028;5.670;2024-03-02T00:36:03;10.70;99.90
27559;DHT22;15002;52.028;5.670;2024-03-02T00:38:30;10.90;99.90
27559;DHT22;15002;52.028;5.670;2024-03-02T00:40:59;11.10;99.90
27559;DHT22;15002;52.028;5.670;2024-03-02T00:46:20;11.50;99.90
27559;DHT22;15002;52.028;5.670;2024-03-02T00:51:18;11.50;99.90
27559;DHT22;15002;52.028;5.670;2024-03-02T00:53:44;11.40;99.90
27559;DHT22;15002;52.028;5.670;2024-03-02T00:56:10;11.60;99.90
27559;DHT22;15002;52.028;5.670;2024-03-02T00:58:37;11.90;99.90
27559;DHT22;15002;52.028;5.670;2024-03-02T01:01:03;11.80;99.90
27559;DHT22;15002;52.028;5.670;2024-03-02T01:03:30;11.70;99.90
27559;DHT22;15002;52.028;5.670;2024-03-02T01:05:56;11.60;99.90
27559;DHT22;15002;52.028;5.670;2024-03-02T01:08:22;11.50;99.90
27559;DHT22;15002;52.028;5.670;2024-03-02T01:10:47;11.40;99.90
27559;DHT22;15002;52.028;5.670;2024-03-02T01:13:13;11.70;99.90
27559;DHT22;15002;52.028;5.670;2024-03-02T01:15:38;11.70;99.90
27559;DHT22;15002;52.028;5.670;2024-03-02T01:18:04;11.90;99.90
27559;DHT22;15002;52.028;5.670;2024-03-02T01:20:30;12.10;99.90
27559;DHT22;15002;52.028;5.670;2024-03-02T01:22:55;12.10;99.90
27559;DHT22;15002;52.028;5.670;2024-03-02T01:25:21;11.90;99.90
27559;DHT22;15002;52.028;5.670;2024-03-02T01:27:47;11.80;99.90
27559;DHT22;15002;52.028;5.670;2024-03-02T01:30:12;11.90;99.90
27559;DHT22;15002;52.028;5.670;2024-03-02T01:32:38;11.90;99.90
27559;DHT22;15002;52.028;5.670;2024-03-02T01:35:05;12.00;99.90
27559;DHT22;15002;52.028;5.670;2024-03-02T01:37:31;12.00;99.90
27559;DHT22;15002;52.028;5.670;2024-03-02T01:39:56;12.00;99.90
27559;DHT22;15002;52.028;5.670;2024-03-02T01:42:22;11.80;99.90
27559;DHT22;15002;52.028;5.670;2024-03-02T01:44:48;11.90;99.90
27559;DHT22;15002;52.028;5.670;2024-03-02T01:47:13;11.80;99.90
27559;DHT22;15002;52.028;5.670;2024-03-02T01:49:39;11.70;99.90
27559;DHT22;15002;52.028;5.670;2024-03-02T01:52:06;11.70;99.90
27559;DHT22;15002;52.028;5.670;2024-03-02T01:54:32;11.70;99.90
27559;DHT22;15002;52.028;5.670;2024-03-02T01:56:58;11.80;99.90
27559;DHT22;15002;52.028;5.670;2024-03-02T01:59:24;12.00;99.90
27559;DHT22;15002;52.028;5.670;2024-03-02T02:01:50;11.90;99.90
27559;DHT22;15002;52.028;5.670;2024-03-02T02:04:15;11.90;99.90
27559;DHT22;15002;52.028;5.670;2024-03-02T02:06:41;11.90;99.90
27559;DHT22;15002;52.028;5.670;2024-03-02T02:09:09;11.90;99.90
27559;DHT22;15002;52.028;5.670;2024-03-02T02:11:35;11.90;99.90
27559;DHT22;15002;52.028;5.670;2024-03-02T02:14:01;11.90;99.90
27559;DHT22;15002;52.028;5.670;2024-03-02T02:16:27;11.80;99.90
27559;DHT22;15002;52.028;5.670;2024-03-02T02:18:52;11.70;99.90
27559;DHT22;15002;52.028;5.670;2024-03-02T02:21:22;11.90;99.90
27559;DHT22;15002;52.028;5.670;2024-03-02T02:23:48;11.80;99.90
27559;DHT22;15002;52.028;5.670;2024-03-02T02:26:14;11.70;99.90
27559;DHT22;15002;52.028;5.670;2024-03-02T02:28:39;11.80;99.90
27559;DHT22;15002;52.028;5.670;2024-03-02T02:31:12;11.50;99.90
27559;DHT22;15002;52.028;5.670;2024-03-02T02:33:39;11.50;99.90
27559;DHT22;15002;52.028;5.670;2024-03-02T02:36:05;11.70;99.90
27559;DHT22;15002;52.028;5.670;2024-03-02T02:38:33;11.60;99.90
27559;DHT22;15002;52.028;5.670;2024-03-02T02:41:02;11.60;99.90
27559;DHT22;15002;52.028;5.670;2024-03-02T02:43:27;11.70;99.90
27559;DHT22;15002;52.028;5.670;2024-03-02T02:45:53;11.50;99.90
27559;DHT22;15002;52.028;5.670;2024-03-02T02:48:19;11.50;99.90
27559;DHT22;15002;52.028;5.670;2024-03-02T02:50:44;11.60;99.90
27559;DHT22;15002;52.028;5.670;2024-03-02T02:53:10;11.50;99.90
27559;DHT22;15002;52.028;5.670;2024-03-02T02:55:36;11.50;99.90
27559;DHT22;15002;52.028;5.670;2024-03-02T02:58:06;11.60;99.90
27559;DHT22;15002;52.028;5.670;2024-03-02T03:00:32;11.60;99.90
27559;DHT22;15002;52.028;5.670;2024-03-02T03:02:58;11.60;99.90
27559;DHT22;15002;52.028;5.670;2024-03-02T03:05:23;11.60;99.90
27559;DHT22;15002;52.028;5.670;2024-03-02T03:07:49;11.50;99.90
27559;DHT22;15002;52.028;5.670;2024-03-02T03:10:16;11.50;99.90
27559;DHT22;15002;52.028;5.670;2024-03-02T03:12:42;11.60;99.90
27559;DHT22;15002;52.028;5.670;2024-03-02T03:15:09;11.40;99.90
27559;DHT22;15002;52.028;5.670;2024-03-02T03:17:35;11.50;99.90
27559;DHT22;15002;52.028;5.670;2024-03-02T03:20:01;11.40;99.90
27559;DHT22;15002;52.028;5.670;2024-03-02T03:22:28;11.40;99.90
27559;DHT22;15002;52.028;5.670;2024-03-02T03:24:53;11.30;99.90
27559;DHT22;15002;52.028;5.670;2024-03-02T03:27:19;11.40;99.90
27559;DHT22;15002;52.028;5.670;2024-03-02T03:29:47;11.10;99.90
27559;DHT22;15002;52.028;5.670;2024-03-02T03:32:13;11.00;99.90
27559;DHT22;15002;52.028;5.670;2024-03-02T03:34:39;10.90;99.90
27559;DHT22;15002;52.028;5.670;2024-03-02T03:37:05;11.10;99.90
27559;DHT22;15002;52.028;5.670;2024-03-02T03:39:31;11.10;99.90
27559;DHT22;15002;52.028;5.670;2024-03-02T03:41:56;10.90;99.90
27559;DHT22;15002;52.028;5.670;2024-03-02T03:44:22;10.90;99.90
27559;DHT22;15002;52.028;5.670;2024-03-02T03:46:48;10.80;99.90
27559;DHT22;15002;52.028;5.670;2024-03-02T03:49:13;10.80;99.90
27559;DHT22;15002;52.028;5.670;2024-03-02T03:51:39;10.70;99.90
27559;DHT22;15002;52.028;5.670;2024-03-02T03:54:05;11.10;99.90
27559;DHT22;15002;52.028;5.670;2024-03-02T03:56:30;10.90;99.90
27559;DHT22;15002;52.028;5.670;2024-03-02T03:58:56;11.00;99.90
27559;DHT22;15002;52.028;5.670;2024-03-02T04:01:21;11.10;99.90
27559;DHT22;15002;52.028;5.670;2024-03-02T04:03:48;11.10;99.90
27559;DHT22;15002;52.028;5.670;2024-03-02T04:06:14;11.10;99.90
27559;DHT22;15002;52.028;5.670;2024-03-02T04:08:41;11.20;99.90
27559;DHT22;15002;52.028;5.670;2024-03-02T04:11:07;11.20;99.90
27559;DHT22;15002;52.028;5.670;2024-03-02T04:13:33;11.10;99.90
27559;DHT22;15002;52.028;5.670;2024-03-02T04:15:58;11.30;99.90
27559;DHT22;15002;52.028;5.670;2024-03-02T04:18:24;11.20;99.90
27559;DHT22;15002;52.028;5.670;2024-03-02T04:20:50;11.30;99.90
27559;DHT22;15002;52.028;5.670;2024-03-02T04:23:15;11.40;99.90
27559;DHT22;15002;52.028;5.670;2024-03-02T04:25:41;11.40;99.90
27559;DHT22;15002;52.028;5.670;2024-03-02T04:28:07;11.20;99.90
27559;DHT22;15002;52.028;5.670;2024-03-02T04:30:32;11.20;99.90
27559;DHT22;15002;52.028;5.670;2024-03-02T04:32:58;11.10;99.90
27559;DHT22;15002;52.028;5.670;2024-03-02T04:35:24;11.00;99.90
27559;DHT22;15002;52.028;5.670;2024-03-02T04:37:50;10.90;99.90
27559;DHT22;15002;52.028;5.670;2024-03-02T04:40:16;11.00;99.90
27559;DHT22;15002;52.028;5.670;2024-03-02T04:42:42;11.10;99.90
27559;DHT22;15002;52.028;5.670;2024-03-02T04:45:08;11.10;99.90
27559;DHT22;15002;52.028;5.670;2024-03-02T04:47:34;11.10;99.90
27559;DHT22;15002;52.028;5.670;2024-03-02T04:49:59;11.10;99.90
27559;DHT22;15002;52.028;5.670;2024-03-02T04:52:25;11.20;99.90
27559;DHT22;15002;52.028;5.670;2024-03-02T04:54:51;11.10;99.90
27559;DHT22;15002;52.028;5.670;2024-03-02T04:57:35;11.10;99.90
27559;DHT22;15002;52.028;5.670;2024-03-02T05:00:01;11.00;99.90
27559;DHT22;15002;52.028;5.670;2024-03-02T05:02:27;11.10;99.90
27559;DHT22;15002;52.028;5.670;2024-03-02T05:04:52;11.00;99.90
27559;DHT22;15002;52.028;5.670;2024-03-02T05:07:18;11.00;99.90
27559;DHT22;15002;52.028;5.670;2024-03-02T05:09:43;11.00;99.90
27559;DHT22;15002;52.028;5.670;2024-03-02T05:12:10;11.00;99.90
27559;DHT22;15002;52.028;5.670;2024-03-02T05:14:54;11.00;99.90
27559;DHT22;15002;52.028;5.670;2024-03-02T05:17:20;10.90;99.90
27559;DHT22;15002;52.028;5.670;2024-03-02T05:19:45;10.90;99.90
27559;DHT22;15002;52.028;5.670;2024-03-02T05:22:11;10.70;99.90
27559;DHT22;15002;52.028;5.670;2024-03-02T05:24:37;10.90;99.90
27559;DHT22;15002;52.028;5.670;2024-03-02T05:27:02;11.00;99.90
27559;DHT22;15002;52.028;5.670;2024-03-02T05:29:28;11.20;99.90
27559;DHT22;15002;52.028;5.670;2024-03-02T05:31:53;11.20;99.90
27559;DHT22;15002;52.028;5.670;2024-03-02T05:34:19;11.00;99.90
27559;DHT22;15002;52.028;5.670;2024-03-02T05:36:45;11.10;99.90
27559;DHT22;15002;52.028;5.670;2024-03-02T05:39:10;11.10;99.90
27559;DHT22;15002;52.028;5.670;2024-03-02T05:41:36;10.90;99.90
27559;DHT22;15002;52.028;5.670;2024-03-02T05:44:01;10.80;99.90
27559;DHT22;15002;52.028;5.670;2024-03-02T05:46:27;10.90;99.90
27559;DHT22;15002;52.028;5.670;2024-03-02T05:48:53;11.00;99.90
27559;DHT22;15002;52.028;5.670;2024-03-02T05:51:19;11.00;99.90
27559;DHT22;15002;52.028;5.670;2024-03-02T05:53:45;11.00;99.90
27559;DHT22;15002;52.028;5.670;2024-03-02T05:56:10;10.90;99.90
27559;DHT22;15002;52.028;5.670;2024-03-02T05:58:37;10.80;99.90
27559;DHT22;15002;52.028;5.670;2024-03-02T06:01:22;11.00;99.90
27559;DHT22;15002;52.028;5.670;2024-03-02T06:03:56;10.80;99.90
27559;DHT22;15002;52.028;5.670;2024-03-02T06:06:23;10.80;99.90
27559;DHT22;15002;52.028;5.670;2024-03-02T06:08:48;10.90;99.90
27559;DHT22;15002;52.028;5.670;2024-03-02T06:11:14;11.00;99.90
27559;DHT22;15002;52.028;5.670;2024-03-02T06:13:40;10.90;99.90
27559;DHT22;15002;52.028;5.670;2024-03-02T06:16:05;10.80;99.90
27559;DHT22;15002;52.028;5.670;2024-03-02T06:18:31;10.70;99.90
27559;DHT22;15002;52.028;5.670;2024-03-02T06:20:57;10.60;99.90
27559;DHT22;15002;52.028;5.670;2024-03-02T06:23:22;10.70;99.90
27559;DHT22;15002;52.028;5.670;2024-03-02T06:25:48;10.70;99.90
27559;DHT22;15002;52.028;5.670;2024-03-02T06:28:14;10.50;99.90
27559;DHT22;15002;52.028;5.670;2024-03-02T06:30:41;10.60;99.90
27559;DHT22;15002;52.028;5.670;2024-03-02T06:33:07;10.70;99.90
27559;DHT22;15002;52.028;5.670;2024-03-02T06:35:33;10.70;99.90
27559;DHT22;15002;52.028;5.670;2024-03-02T06:38:00;10.80;99.90
27559;DHT22;15002;52.028;5.670;2024-03-02T06:40:26;10.80;99.90
27559;DHT22;15002;52.028;5.670;2024-03-02T06:42:52;11.00;99.90
27559;DHT22;15002;52.028;5.670;2024-03-02T06:45:17;10.80;99.90
27559;DHT22;15002;52.028;5.670;2024-03-02T06:47:43;10.60;99.90
27559;DHT22;15002;52.028;5.670;2024-03-02T06:50:09;10.60;99.90
27559;DHT22;15002;52.028;5.670;2024-03-02T06:52:35;10.70;99.90
27559;DHT22;15002;52.028;5.670;2024-03-02T06:55:01;10.70;99.90
27559;DHT22;15002;52.028;5.670;2024-03-02T06:57:27;10.80;99.90
27559;DHT22;15002;52.028;5.670;2024-03-02T06:59:52;10.70;99.90
27559;DHT22;15002;52.028;5.670;2024-03-02T07:02:20;10.80;99.90
27559;DHT22;15002;52.028;5.670;2024-03-02T07:04:46;11.20;99.90
27559;DHT22;15002;52.028;5.670;2024-03-02T07:07:12;11.50;99.90
27559;DHT22;15002;52.028;5.670;2024-03-02T07:09:38;11.70;99.90
27559;DHT22;15002;52.028;5.670;2024-03-02T07:12:04;11.70;99.90
27559;DHT22;15002;52.028;5.670;2024-03-02T07:14:30;11.60;99.90
27559;DHT22;15002;52.028;5.670;2024-03-02T07:17:14;11.90;99.90
27559;DHT22;15002;52.028;5.670;2024-03-02T07:19:39;12.40;99.90
27559;DHT22;15002;52.028;5.670;2024-03-02T07:22:09;12.60;99.90
27559;DHT22;15002;52.028;5.670;2024-03-02T07:24:41;12.70;99.90
27559;DHT22;15002;52.028;5.670;2024-03-02T07:27:07;12.70;99.90
27559;DHT22;15002;52.028;5.670;2024-03-02T07:29:33;12.60;99.90
27559;DHT22;15002;52.028;5.670;2024-03-02T07:31:59;12.60;99.90
27559;DHT22;15002;52.028;5.670;2024-03-02T07:34:25;12.70;99.90
27559;DHT22;15002;52.028;5.670;2024-03-02T07:36:50;12.60;99.90
27559;DHT22;15002;52.028;5.670;2024-03-02T07:39:16;12.50;99.90
27559;DHT22;15002;52.028;5.670;2024-03-02T07:41:42;12.50;99.90
27559;DHT22;15002;52.028;5.670;2024-03-02T07:44:07;12.50;99.90
27559;DHT22;15002;52.028;5.670;2024-03-02T07:46:33;12.60;99.90
27559;DHT22;15002;52.028;5.670;2024-03-02T07:48:59;12.60;99.90
27559;DHT22;15002;52.028;5.670;2024-03-02T07:51:24;12.70;99.90
27559;DHT22;15002;52.028;5.670;2024-03-02T07:53:50;12.70;99.90
27559;DHT22;15002;52.028;5.670;2024-03-02T07:56:16;12.60;99.90
27559;DHT22;15002;52.028;5.670;2024-03-02T07:58:48;12.60;99.90
27559;DHT22;15002;52.028;5.670;2024-03-02T08:01:14;12.90;99.90
27559;DHT22;15002;52.028;5.670;2024-03-02T08:03:40;13.10;99.90
27559;DHT22;15002;52.028;5.670;2024-03-02T08:06:06;13.10;99.90
27559;DHT22;15002;52.028;5.670;2024-03-02T08:08:32;13.00;99.90
27559;DHT22;15002;52.028;5.670;2024-03-02T08:10:57;13.00;99.90
27559;DHT22;15002;52.028;5.670;2024-03-02T08:13:23;13.00;99.90
27559;DHT22;15002;52.028;5.670;2024-03-02T08:15:49;12.90;99.90
27559;DHT22;15002;52.028;5.670;2024-03-02T08:18:14;12.90;99.90
27559;DHT22;15002;52.028;5.670;2024-03-02T08:20:40;12.80;99.90
27559;DHT22;15002;52.028;5.670;2024-03-02T08:23:06;12.80;99.90
27559;DHT22;15002;52.028;5.670;2024-03-02T08:25:33;12.90;99.90
27559;DHT22;15002;52.028;5.670;2024-03-02T08:27:59;13.00;99.90
27559;DHT22;15002;52.028;5.670;2024-03-02T08:30:24;12.90;99.90
27559;DHT22;15002;52.028;5.670;2024-03-02T08:32:50;13.40;99.90
27559;DHT22;15002;52.028;5.670;2024-03-02T08:35:16;13.30;99.90
27559;DHT22;15002;52.028;5.670;2024-03-02T08:37:42;13.40;99.90
27559;DHT22;15002;52.028;5.670;2024-03-02T08:40:09;13.50;99.90
27559;DHT22;15002;52.028;5.670;2024-03-02T08:42:35;13.30;99.90
27559;DHT22;15002;52.028;5.670;2024-03-02T08:45:01;13.40;99.90
27559;DHT22;15002;52.028;5.670;2024-03-02T08:47:27;13.40;99.90
27559;DHT22;15002;52.028;5.670;2024-03-02T08:49:53;13.20;99.90
27559;DHT22;15002;52.028;5.670;2024-03-02T08:52:18;13.30;99.90
27559;DHT22;15002;52.028;5.670;2024-03-02T08:54:44;13.00;99.90
27559;DHT22;15002;52.028;5.670;2024-03-02T08:57:10;13.40;99.90
27559;DHT22;15002;52.028;5.670;2024-03-02T08:59:35;13.30;99.90
27559;DHT22;15002;52.028;5.670;2024-03-02T09:02:01;13.10;99.90
27559;DHT22;15002;52.028;5.670;2024-03-02T09:04:28;13.00;99.90
27559;DHT22;15002;52.028;5.670;2024-03-02T09:06:54;13.00;99.90
27559;DHT22;15002;52.028;5.670;2024-03-02T09:09:19;12.90;99.90
27559;DHT22;15002;52.028;5.670;2024-03-02T09:11:46;12.90;99.90
27559;DHT22;15002;52.028;5.670;2024-03-02T09:14:12;12.80;99.90
27559;DHT22;15002;52.028;5.670;2024-03-02T09:16:40;12.90;99.90
27559;DHT22;15002;52.028;5.670;2024-03-02T09:19:05;13.10;99.90
27559;DHT22;15002;52.028;5.670;2024-03-02T09:21:31;13.30;99.90
27559;DHT22;15002;52.028;5.670;2024-03-02T09:23:57;13.50;99.90
27559;DHT22;15002;52.028;5.670;2024-03-02T09:26:22;13.70;99.90
27559;DHT22;15002;52.028;5.670;2024-03-02T09:28:50;13.90;99.90
27559;DHT22;15002;52.028;5.670;2024-03-02T09:31:16;14.50;99.90
27559;DHT22;15002;52.028;5.670;2024-03-02T09:33:41;14.70;99.90
27559;DHT22;15002;52.028;5.670;2024-03-02T09:36:17;14.60;99.90
27559;DHT22;15002;52.028;5.670;2024-03-02T09:38:44;14.80;99.90
27559;DHT22;15002;52.028;5.670;2024-03-02T09:41:09;14.80;99.90
27559;DHT22;15002;52.028;5.670;2024-03-02T09:43:35;15.20;99.90
27559;DHT22;15002;52.028;5.670;2024-03-02T09:46:01;15.30;99.90
27559;DHT22;15002;52.028;5.670;2024-03-02T09:48:27;15.50;99.90
27559;DHT22;15002;52.028;5.670;2024-03-02T09:50:53;15.30;99.90
27559;DHT22;15002;52.028;5.670;2024-03-02T09:53:18;15.20;99.90
27559;DHT22;15002;52.028;5.670;2024-03-02T09:55:47;15.00;99.90
27559;DHT22;15002;52.028;5.670;2024-03-02T09:58:13;14.70;99.90
27559;DHT22;15002;52.028;5.670;2024-03-02T10:00:39;14.50;99.90
27559;DHT22;15002;52.028;5.670;2024-03-02T10:03:05;14.60;99.90
27559;DHT22;15002;52.028;5.670;2024-03-02T10:05:31;14.80;99.90
27559;DHT22;15002;52.028;5.670;2024-03-02T10:08:01;15.00;99.90
27559;DHT22;15002;52.028;5.670;2024-03-02T10:10:38;14.90;99.90
27559;DHT22;15002;52.028;5.670;2024-03-02T10:13:09;14.80;99.90
27559;DHT22;15002;52.028;5.670;2024-03-02T10:15:36;14.70;99.90
27559;DHT22;15002;52.028;5.670;2024-03-02T10:18:12;14.80;99.90
27559;DHT22;15002;52.028;5.670;2024-03-02T10:20:39;15.10;99.90
27559;DHT22;15002;52.028;5.670;2024-03-02T10:23:13;15.40;99.90
27559;DHT22;15002;52.028;5.670;2024-03-02T10:25:39;15.40;99.90
27559;DHT22;15002;52.028;5.670;2024-03-02T10:28:05;15.50;99.90
27559;DHT22;15002;52.028;5.670;2024-03-02T10:30:32;15.00;99.90
27559;DHT22;15002;52.028;5.670;2024-03-02T10:32:58;14.90;99.90
27559;DHT22;15002;52.028;5.670;2024-03-02T10:35:23;15.00;99.90
27559;DHT22;15002;52.028;5.670;2024-03-02T10:37:52;15.40;99.90
27559;DHT22;15002;52.028;5.670;2024-03-02T10:40:21;15.70;99.90
27559;DHT22;15002;52.028;5.670;2024-03-02T10:42:47;15.60;99.90
27559;DHT22;15002;52.028;5.670;2024-03-02T10:45:15;15.60;99.90
27559;DHT22;15002;52.028;5.670;2024-03-02T10:47:43;15.50;99.90
27559;DHT22;15002;52.028;5.670;2024-03-02T10:50:09;15.40;99.90
27559;DHT22;15002;52.028;5.670;2024-03-02T10:52:36;15.30;99.90
27559;DHT22;15002;52.028;5.670;2024-03-02T10:55:02;15.30;99.90
27559;DHT22;15002;52.028;5.670;2024-03-02T10:57:41;15.50;99.90
27559;DHT22;15002;52.028;5.670;2024-03-02T11:00:11;15.60;99.90
27559;DHT22;15002;52.028;5.670;2024-03-02T11:02:46;15.50;99.90
27559;DHT22;15002;52.028;5.670;2024-03-02T11:05:23;15.70;99.90
27559;DHT22;15002;52.028;5.670;2024-03-02T11:07:53;15.50;99.90
27559;DHT22;15002;52.028;5.670;2024-03-02T11:10:22;15.50;99.90
27559;DHT22;15002;52.028;5.670;2024-03-02T11:12:55;15.70;99.90
27559;DHT22;15002;52.028;5.670;2024-03-02T11:15:25;15.90;99.90
27559;DHT22;15002;52.028;5.670;2024-03-02T11:17:52;15.80;99.90
27559;DHT22;15002;52.028;5.670;2024-03-02T11:20:18;15.50;99.90
27559;DHT22;15002;52.028;5.670;2024-03-02T11:22:45;15.50;99.90
27559;DHT22;15002;52.028;5.670;2024-03-02T11:25:25;15.50;99.90
27559;DHT22;15002;52.028;5.670;2024-03-02T11:33:01;15.20;99.90
27559;DHT22;15002;52.028;5.670;2024-03-02T11:35:31;15.10;99.90
27559;DHT22;15002;52.028;5.670;2024-03-02T11:37:57;15.00;99.90
27559;DHT22;15002;52.028;5.670;2024-03-02T11:40:26;15.20;99.90
27559;DHT22;15002;52.028;5.670;2024-03-02T11:42:53;15.50;99.90
27559;DHT22;15002;52.028;5.670;2024-03-02T11:45:28;15.30;99.90
27559;DHT22;15002;52.028;5.670;2024-03-02T11:47:55;15.30;99.90
27559;DHT22;15002;52.028;5.670;2024-03-02T11:50:30;15.30;99.90
27559;DHT22;15002;52.028;5.670;2024-03-02T11:52:57;15.50;99.90
27559;DHT22;15002;52.028;5.670;2024-03-02T11:55:27;15.40;99.90
27559;DHT22;15002;52.028;5.670;2024-03-02T11:57:54;15.30;99.90
27559;DHT22;15002;52.028;5.670;2024-03-02T12:00:20;15.60;99.70
27559;DHT22;15002;52.028;5.670;2024-03-02T12:02:47;15.70;99.90
27559;DHT22;15002;52.028;5.670;2024-03-02T12:05:25;15.70;99.90
27559;DHT22;15002;52.028;5.670;2024-03-02T12:07:59;15.80;99.90
27559;DHT22;15002;52.028;5.670;2024-03-02T12:10:25;15.70;99.90
27559;DHT22;15002;52.028;5.670;2024-03-02T12:12:58;15.60;99.90
27559;DHT22;15002;52.028;5.670;2024-03-02T12:15:26;15.50;99.90
27559;DHT22;15002;52.028;5.670;2024-03-02T12:17:56;15.10;99.90
27559;DHT22;15002;52.028;5.670;2024-03-02T12:20:23;14.80;99.90
27559;DHT22;15002;52.028;5.670;2024-03-02T12:22:50;14.60;99.90
27559;DHT22;15002;52.028;5.670;2024-03-02T12:25:21;14.70;99.90
27559;DHT22;15002;52.028;5.670;2024-03-02T12:27:50;14.90;99.90
27559;DHT22;15002;52.028;5.670;2024-03-02T12:30:19;14.70;99.90
27559;DHT22;15002;52.028;5.670;2024-03-02T12:32:45;14.90;99.90
27559;DHT22;15002;52.028;5.670;2024-03-02T12:35:11;15.40;99.90
27559;DHT22;15002;52.028;5.670;2024-03-02T12:37:46;15.30;99.90
27559;DHT22;15002;52.028;5.670;2024-03-02T12:40:13;15.50;99.90
27559;DHT22;15002;52.028;5.670;2024-03-02T12:42:40;15.70;99.90
27559;DHT22;15002;52.028;5.670;2024-03-02T12:45:07;15.60;99.90
27559;DHT22;15002;52.028;5.670;2024-03-02T12:47:36;16.00;99.90
27559;DHT22;15002;52.028;5.670;2024-03-02T12:50:04;15.80;99.90
27559;DHT22;15002;52.028;5.670;2024-03-02T12:52:30;15.60;99.90
27559;DHT22;15002;52.028;5.670;2024-03-02T12:54:59;15.50;99.90
27559;DHT22;15002;52.028;5.670;2024-03-02T12:57:32;15.20;99.90
27559;DHT22;15002;52.028;5.670;2024-03-02T12:59:59;15.40;99.90
27559;DHT22;15002;52.028;5.670;2024-03-02T13:02:30;15.40;99.90
27559;DHT22;15002;52.028;5.670;2024-03-02T13:04:58;15.20;99.90
27559;DHT22;15002;52.028;5.670;2024-03-02T13:07:24;14.70;99.90
27559;DHT22;15002;52.028;5.670;2024-03-02T13:09:51;14.60;99.90
27559;DHT22;15002;52.028;5.670;2024-03-02T13:12:17;14.80;99.90
27559;DHT22;15002;52.028;5.670;2024-03-02T13:14:43;15.00;99.90
27559;DHT22;15002;52.028;5.670;2024-03-02T13:17:09;15.20;99.90
27559;DHT22;15002;52.028;5.670;2024-03-02T13:19:35;14.90;99.90
27559;DHT22;15002;52.028;5.670;2024-03-02T13:22:01;14.80;99.90
27559;DHT22;15002;52.028;5.670;2024-03-02T13:24:30;14.70;99.90
27559;DHT22;15002;52.028;5.670;2024-03-02T13:26:56;14.40;99.90
27559;DHT22;15002;52.028;5.670;2024-03-02T13:29:23;14.40;99.90
27559;DHT22;15002;52.028;5.670;2024-03-02T13:31:49;14.40;99.90
27559;DHT22;15002;52.028;5.670;2024-03-02T13:34:15;14.50;99.90
27559;DHT22;15002;52.028;5.670;2024-03-02T13:36:41;14.70;99.90
27559;DHT22;15002;52.028;5.670;2024-03-02T13:39:06;14.90;99.90
27559;DHT22;15002;52.028;5.670;2024-03-02T13:41:34;15.00;99.90
27559;DHT22;15002;52.028;5.670;2024-03-02T13:44:00;15.10;99.90
27559;DHT22;15002;52.028;5.670;2024-03-02T13:46:27;15.00;99.90
27559;DHT22;15002;52.028;5.670;2024-03-02T13:48:54;15.00;99.90
27559;DHT22;15002;52.028;5.670;2024-03-02T13:51:19;15.20;99.90
27559;DHT22;15002;52.028;5.670;2024-03-02T13:53:45;15.40;99.90
27559;DHT22;15002;52.028;5.670;2024-03-02T13:56:11;15.70;99.90
27559;DHT22;15002;52.028;5.670;2024-03-02T13:58:37;15.80;99.90
27559;DHT22;15002;52.028;5.670;2024-03-02T14:01:03;15.70;99.90
27559;DHT22;15002;52.028;5.670;2024-03-02T14:03:30;14.90;99.90
27559;DHT22;15002;52.028;5.670;2024-03-02T14:05:55;15.00;99.90
27559;DHT22;15002;52.028;5.670;2024-03-02T14:08:21;14.90;99.90
27559;DHT22;15002;52.028;5.670;2024-03-02T14:10:47;15.00;99.90
27559;DHT22;15002;52.028;5.670;2024-03-02T14:13:13;15.10;99.90
27559;DHT22;15002;52.028;5.670;2024-03-02T14:15:38;15.20;99.90
27559;DHT22;15002;52.028;5.670;2024-03-02T14:18:05;15.40;99.90
27559;DHT22;15002;52.028;5.670;2024-03-02T14:20:31;15.30;99.90
27559;DHT22;15002;52.028;5.670;2024-03-02T14:22:58;15.20;99.90
27559;DHT22;15002;52.028;5.670;2024-03-02T14:25:25;15.40;99.90
27559;DHT22;15002;52.028;5.670;2024-03-02T14:27:51;15.10;99.90
27559;DHT22;15002;52.028;5.670;2024-03-02T14:30:16;15.30;99.90
27559;DHT22;15002;52.028;5.670;2024-03-02T14:32:42;15.60;99.90
27559;DHT22;15002;52.028;5.670;2024-03-02T14:35:08;15.80;99.90
27559;DHT22;15002;52.028;5.670;2024-03-02T14:37:37;15.60;99.90
27559;DHT22;15002;52.028;5.670;2024-03-02T14:40:02;15.30;99.90
27559;DHT22;15002;52.028;5.670;2024-03-02T14:42:32;15.10;99.90
27559;DHT22;15002;52.028;5.670;2024-03-02T14:44:57;15.20;99.90
27559;DHT22;15002;52.028;5.670;2024-03-02T14:47:23;15.10;99.90
27559;DHT22;15002;52.028;5.670;2024-03-02T14:49:50;14.90;99.90
27559;DHT22;15002;52.028;5.670;2024-03-02T14:52:15;14.90;99.90
27559;DHT22;15002;52.028;5.670;2024-03-02T14:54:44;15.00;99.90
27559;DHT22;15002;52.028;5.670;2024-03-02T14:57:09;15.10;99.90
27559;DHT22;15002;52.028;5.670;2024-03-02T14:59:36;15.20;99.90
27559;DHT22;15002;52.028;5.670;2024-03-02T15:02:02;15.30;99.90
27559;DHT22;15002;52.028;5.670;2024-03-02T15:04:28;15.30;99.90
27559;DHT22;15002;52.028;5.670;2024-03-02T15:06:54;15.20;99.90
27559;DHT22;15002;52.028;5.670;2024-03-02T15:09:19;15.10;99.90
27559;DHT22;15002;52.028;5.670;2024-03-02T15:11:45;15.10;99.90
27559;DHT22;15002;52.028;5.670;2024-03-02T15:14:11;15.10;99.90
27559;DHT22;15002;52.028;5.670;2024-03-02T15:16:37;15.20;99.90
27559;DHT22;15002;52.028;5.670;2024-03-02T15:19:02;15.10;99.90
27559;DHT22;15002;52.028;5.670;2024-03-02T15:21:28;15.10;99.90
27559;DHT22;15002;52.028;5.670;2024-03-02T15:23:54;14.80;99.90
27559;DHT22;15002;52.028;5.670;2024-03-02T15:26:20;14.70;99.90
27559;DHT22;15002;52.028;5.670;2024-03-02T15:28:46;14.70;99.90
27559;DHT22;15002;52.028;5.670;2024-03-02T15:31:12;14.80;99.90
27559;DHT22;15002;52.028;5.670;2024-03-02T15:33:37;14.90;99.90
27559;DHT22;15002;52.028;5.670;2024-03-02T15:36:03;15.00;99.90
27559;DHT22;15002;52.028;5.670;2024-03-02T15:38:30;14.90;99.90